Search for airport 
image banner adimage banner adimage banner ad
image banner ad

CA320 - Pointed Mountain (Cbj6)

Located in , Canada

ICAO - , IATA -

Data provided by Airmate  

General information

Coordinates: N60°20'0" W123°49'60"
Elevation is feet MSL.
 
View others Airports in Northwest Territories

Operational data

Special qualification required
Current time UTC:
Current local time:
Weather at : CYJF - Fort Liard ( 23 km )
METAR: CYJF 221500Z 06019KT 15SM SCT008 BKN110 BKN220 M02/M02 A2949 RMK ST3AC3CS1 SLP000
View NOTAMs / SUP AIP / TFR affecting this airport [VIEW]
Communications frequencies: [VIEW]

Runways:

Airport contact information

Address: Canada

Satellite view of CA320